sensor_id;sensor_type;location;lat;lon;timestamp;temperature;humidity
16700;DHT22;8466;52.286;21.124;2022-09-01T00:00:10;11.70;99.90
16700;DHT22;8466;52.286;21.124;2022-09-01T00:02:42;11.70;99.90
16700;DHT22;8466;52.286;21.124;2022-09-01T00:05:11;11.70;99.90
16700;DHT22;8466;52.286;21.124;2022-09-01T00:07:40;11.70;99.90
16700;DHT22;8466;52.286;21.124;2022-09-01T00:10:09;11.60;99.90
16700;DHT22;8466;52.286;21.124;2022-09-01T00:12:38;11.60;99.90
16700;DHT22;8466;52.286;21.124;2022-09-01T00:15:08;11.60;99.90
16700;DHT22;8466;52.286;21.124;2022-09-01T00:17:37;11.50;99.90
16700;DHT22;8466;52.286;21.124;2022-09-01T00:20:09;11.50;99.90
16700;DHT22;8466;52.286;21.124;2022-09-01T00:22:37;11.50;99.90
16700;DHT22;8466;52.286;21.124;2022-09-01T00:25:07;11.40;99.90
16700;DHT22;8466;52.286;21.124;2022-09-01T00:27:35;11.40;99.90
16700;DHT22;8466;52.286;21.124;2022-09-01T00:30:05;11.30;99.90
16700;DHT22;8466;52.286;21.124;2022-09-01T00:32:34;11.20;99.90
16700;DHT22;8466;52.286;21.124;2022-09-01T00:35:04;11.30;99.90
16700;DHT22;8466;52.286;21.124;2022-09-01T00:37:36;11.20;99.90
16700;DHT22;8466;52.286;21.124;2022-09-01T00:40:06;11.20;99.90
16700;DHT22;8466;52.286;21.124;2022-09-01T00:42:35;11.20;99.90
16700;DHT22;8466;52.286;21.124;2022-09-01T00:45:05;11.20;99.90
16700;DHT22;8466;52.286;21.124;2022-09-01T00:47:35;11.10;99.90
16700;DHT22;8466;52.286;21.124;2022-09-01T00:50:06;11.10;99.90
16700;DHT22;8466;52.286;21.124;2022-09-01T00:52:40;11.10;99.90
16700;DHT22;8466;52.286;21.124;2022-09-01T00:55:14;11.00;99.90
16700;DHT22;8466;52.286;21.124;2022-09-01T00:57:44;11.00;99.90
16700;DHT22;8466;52.286;21.124;2022-09-01T01:00:16;11.00;99.90
16700;DHT22;8466;52.286;21.124;2022-09-01T01:02:45;10.90;99.90
16700;DHT22;8466;52.286;21.124;2022-09-01T01:05:15;11.00;99.90
16700;DHT22;8466;52.286;21.124;2022-09-01T01:07:45;11.00;99.90
16700;DHT22;8466;52.286;21.124;2022-09-01T01:10:16;11.00;99.90
16700;DHT22;8466;52.286;21.124;2022-09-01T01:12:46;10.90;99.90
16700;DHT22;8466;52.286;21.124;2022-09-01T01:15:18;10.80;99.90
16700;DHT22;8466;52.286;21.124;2022-09-01T01:17:47;10.80;99.90
16700;DHT22;8466;52.286;21.124;2022-09-01T01:20:16;10.80;99.90
16700;DHT22;8466;52.286;21.124;2022-09-01T01:23:11;10.80;99.90
16700;DHT22;8466;52.286;21.124;2022-09-01T01:25:48;10.70;99.90
16700;DHT22;8466;52.286;21.124;2022-09-01T01:28:20;10.60;99.90
16700;DHT22;8466;52.286;21.124;2022-09-01T01:30:51;10.60;99.90
16700;DHT22;8466;52.286;21.124;2022-09-01T01:33:23;10.60;99.90
16700;DHT22;8466;52.286;21.124;2022-09-01T01:35:52;10.50;99.90
16700;DHT22;8466;52.286;21.124;2022-09-01T01:38:24;10.40;99.90
16700;DHT22;8466;52.286;21.124;2022-09-01T01:40:55;10.40;99.90
16700;DHT22;8466;52.286;21.124;2022-09-01T01:43:24;10.30;99.90
16700;DHT22;8466;52.286;21.124;2022-09-01T01:45:55;10.30;99.90
16700;DHT22;8466;52.286;21.124;2022-09-01T01:48:29;10.30;99.90
16700;DHT22;8466;52.286;21.124;2022-09-01T01:51:01;10.20;99.90
16700;DHT22;8466;52.286;21.124;2022-09-01T01:53:31;10.20;99.90
16700;DHT22;8466;52.286;21.124;2022-09-01T01:56:02;10.20;99.90
16700;DHT22;8466;52.286;21.124;2022-09-01T01:58:32;10.20;99.90
16700;DHT22;8466;52.286;21.124;2022-09-01T02:01:02;10.10;99.90
16700;DHT22;8466;52.286;21.124;2022-09-01T02:03:32;10.10;99.90
16700;DHT22;8466;52.286;21.124;2022-09-01T02:06:06;10.00;99.90
16700;DHT22;8466;52.286;21.124;2022-09-01T02:08:36;10.00;99.90
16700;DHT22;8466;52.286;21.124;2022-09-01T02:11:08;9.90;99.90
16700;DHT22;8466;52.286;21.124;2022-09-01T02:13:39;9.90;99.90
16700;DHT22;8466;52.286;21.124;2022-09-01T02:16:08;9.80;99.90
16700;DHT22;8466;52.286;21.124;2022-09-01T02:18:40;9.80;99.90
16700;DHT22;8466;52.286;21.124;2022-09-01T02:21:11;9.70;99.90
16700;DHT22;8466;52.286;21.124;2022-09-01T02:23:45;9.70;99.90
16700;DHT22;8466;52.286;21.124;2022-09-01T02:26:17;9.60;99.90
16700;DHT22;8466;52.286;21.124;2022-09-01T02:28:49;9.60;99.90
16700;DHT22;8466;52.286;21.124;2022-09-01T02:31:22;9.50;99.90
16700;DHT22;8466;52.286;21.124;2022-09-01T02:33:52;9.50;99.90
16700;DHT22;8466;52.286;21.124;2022-09-01T02:36:21;9.50;99.90
16700;DHT22;8466;52.286;21.124;2022-09-01T02:38:51;9.40;99.90
16700;DHT22;8466;52.286;21.124;2022-09-01T02:41:24;9.40;99.90
16700;DHT22;8466;52.286;21.124;2022-09-01T02:43:55;9.40;99.90
16700;DHT22;8466;52.286;21.124;2022-09-01T02:46:29;9.30;99.90
16700;DHT22;8466;52.286;21.124;2022-09-01T02:48:57;9.30;99.90
16700;DHT22;8466;52.286;21.124;2022-09-01T02:51:27;9.20;99.90
16700;DHT22;8466;52.286;21.124;2022-09-01T02:53:55;9.10;99.90
16700;DHT22;8466;52.286;21.124;2022-09-01T02:56:26;9.10;99.90
16700;DHT22;8466;52.286;21.124;2022-09-01T02:58:55;9.00;99.90
16700;DHT22;8466;52.286;21.124;2022-09-01T03:01:25;9.00;99.90
16700;DHT22;8466;52.286;21.124;2022-09-01T03:03:58;9.00;99.90
16700;DHT22;8466;52.286;21.124;2022-09-01T03:06:27;8.90;99.90
16700;DHT22;8466;52.286;21.124;2022-09-01T03:09:02;8.90;99.90
16700;DHT22;8466;52.286;21.124;2022-09-01T03:11:36;8.90;99.90
16700;DHT22;8466;52.286;21.124;2022-09-01T03:14:06;8.90;99.90
16700;DHT22;8466;52.286;21.124;2022-09-01T03:16:35;8.90;99.90
16700;DHT22;8466;52.286;21.124;2022-09-01T03:19:06;8.90;99.90
16700;DHT22;8466;52.286;21.124;2022-09-01T03:21:37;8.90;99.90
16700;DHT22;8466;52.286;21.124;2022-09-01T03:24:07;8.90;99.90
16700;DHT22;8466;52.286;21.124;2022-09-01T03:26:37;8.80;99.90
16700;DHT22;8466;52.286;21.124;2022-09-01T03:29:06;8.70;99.90
16700;DHT22;8466;52.286;21.124;2022-09-01T03:31:36;8.70;99.90
16700;DHT22;8466;52.286;21.124;2022-09-01T03:34:05;8.70;99.90
16700;DHT22;8466;52.286;21.124;2022-09-01T03:36:37;8.70;99.90
16700;DHT22;8466;52.286;21.124;2022-09-01T03:39:05;8.70;99.90
16700;DHT22;8466;52.286;21.124;2022-09-01T03:41:44;8.60;99.90
16700;DHT22;8466;52.286;21.124;2022-09-01T03:44:13;8.60;99.90
16700;DHT22;8466;52.286;21.124;2022-09-01T03:46:43;8.60;99.90
16700;DHT22;8466;52.286;21.124;2022-09-01T03:49:11;8.60;99.90
16700;DHT22;8466;52.286;21.124;2022-09-01T03:51:42;8.60;99.90
16700;DHT22;8466;52.286;21.124;2022-09-01T03:54:12;8.60;99.90
16700;DHT22;8466;52.286;21.124;2022-09-01T03:56:42;8.60;99.90
16700;DHT22;8466;52.286;21.124;2022-09-01T03:59:11;8.60;99.90
16700;DHT22;8466;52.286;21.124;2022-09-01T04:01:43;8.60;99.90
16700;DHT22;8466;52.286;21.124;2022-09-01T04:04:13;8.70;99.90
16700;DHT22;8466;52.286;21.124;2022-09-01T04:06:42;8.70;99.90
16700;DHT22;8466;52.286;21.124;2022-09-01T04:09:12;8.70;99.90
16700;DHT22;8466;52.286;21.124;2022-09-01T04:11:41;8.70;99.90
16700;DHT22;8466;52.286;21.124;2022-09-01T04:14:14;8.90;99.90
16700;DHT22;8466;52.286;21.124;2022-09-01T04:16:43;8.90;99.90
16700;DHT22;8466;52.286;21.124;2022-09-01T04:19:32;9.00;99.90
16700;DHT22;8466;52.286;21.124;2022-09-01T04:22:04;9.10;99.90
16700;DHT22;8466;52.286;21.124;2022-09-01T04:24:34;9.20;99.90
16700;DHT22;8466;52.286;21.124;2022-09-01T04:27:02;9.30;99.90
16700;DHT22;8466;52.286;21.124;2022-09-01T04:29:35;9.30;99.90
16700;DHT22;8466;52.286;21.124;2022-09-01T04:32:06;9.30;99.90
16700;DHT22;8466;52.286;21.124;2022-09-01T04:34:38;9.30;99.90
16700;DHT22;8466;52.286;21.124;2022-09-01T04:37:09;9.40;99.90
16700;DHT22;8466;52.286;21.124;2022-09-01T04:39:39;9.60;99.90
16700;DHT22;8466;52.286;21.124;2022-09-01T04:42:22;9.70;99.90
16700;DHT22;8466;52.286;21.124;2022-09-01T04:44:53;9.70;99.90
16700;DHT22;8466;52.286;21.124;2022-09-01T04:47:24;9.80;99.90
16700;DHT22;8466;52.286;21.124;2022-09-01T04:50:03;9.90;99.90
16700;DHT22;8466;52.286;21.124;2022-09-01T04:52:41;10.00;99.90
16700;DHT22;8466;52.286;21.124;2022-09-01T04:55:11;10.00;99.90
16700;DHT22;8466;52.286;21.124;2022-09-01T04:57:45;9.90;99.90
16700;DHT22;8466;52.286;21.124;2022-09-01T05:00:19;10.10;99.90
16700;DHT22;8466;52.286;21.124;2022-09-01T05:02:53;10.10;99.90
16700;DHT22;8466;52.286;21.124;2022-09-01T05:05:36;10.20;99.90
16700;DHT22;8466;52.286;21.124;2022-09-01T05:08:09;10.30;99.90
16700;DHT22;8466;52.286;21.124;2022-09-01T05:10:51;10.40;99.90
16700;DHT22;8466;52.286;21.124;2022-09-01T05:13:22;10.50;99.90
16700;DHT22;8466;52.286;21.124;2022-09-01T05:16:01;10.70;99.90
16700;DHT22;8466;52.286;21.124;2022-09-01T05:18:30;10.70;99.90
16700;DHT22;8466;52.286;21.124;2022-09-01T05:21:04;10.60;99.90
16700;DHT22;8466;52.286;21.124;2022-09-01T05:23:37;10.70;99.90
16700;DHT22;8466;52.286;21.124;2022-09-01T05:26:12;10.80;99.90
16700;DHT22;8466;52.286;21.124;2022-09-01T05:28:44;10.90;99.90
16700;DHT22;8466;52.286;21.124;2022-09-01T05:31:15;11.00;99.90
16700;DHT22;8466;52.286;21.124;2022-09-01T05:33:47;11.10;99.90
16700;DHT22;8466;52.286;21.124;2022-09-01T05:36:19;11.10;99.90
16700;DHT22;8466;52.286;21.124;2022-09-01T05:38:49;11.30;99.90
16700;DHT22;8466;52.286;21.124;2022-09-01T05:41:19;11.40;99.90
16700;DHT22;8466;52.286;21.124;2022-09-01T05:43:50;11.50;99.90
16700;DHT22;8466;52.286;21.124;2022-09-01T05:46:27;11.60;99.90
16700;DHT22;8466;52.286;21.124;2022-09-01T05:48:57;11.70;99.90
16700;DHT22;8466;52.286;21.124;2022-09-01T05:51:28;11.80;99.90
16700;DHT22;8466;52.286;21.124;2022-09-01T05:54:12;11.90;99.90
16700;DHT22;8466;52.286;21.124;2022-09-01T05:56:42;11.90;99.90
16700;DHT22;8466;52.286;21.124;2022-09-01T05:59:11;12.00;99.90
16700;DHT22;8466;52.286;21.124;2022-09-01T06:01:51;12.10;99.90
16700;DHT22;8466;52.286;21.124;2022-09-01T06:04:22;12.30;99.90
16700;DHT22;8466;52.286;21.124;2022-09-01T06:06:52;12.40;99.90
16700;DHT22;8466;52.286;21.124;2022-09-01T06:09:36;12.40;99.90
16700;DHT22;8466;52.286;21.124;2022-09-01T06:12:06;12.50;99.90
16700;DHT22;8466;52.286;21.124;2022-09-01T06:14:35;12.70;99.90
16700;DHT22;8466;52.286;21.124;2022-09-01T06:17:05;12.80;99.90
16700;DHT22;8466;52.286;21.124;2022-09-01T06:19:36;13.00;99.90
16700;DHT22;8466;52.286;21.124;2022-09-01T06:22:06;13.10;99.90
16700;DHT22;8466;52.286;21.124;2022-09-01T06:24:37;13.20;99.90
16700;DHT22;8466;52.286;21.124;2022-09-01T06:27:06;13.20;99.90
16700;DHT22;8466;52.286;21.124;2022-09-01T06:29:36;13.30;99.90
16700;DHT22;8466;52.286;21.124;2022-09-01T06:32:08;13.40;99.90
16700;DHT22;8466;52.286;21.124;2022-09-01T06:34:39;13.40;99.90
16700;DHT22;8466;52.286;21.124;2022-09-01T06:37:11;13.50;99.90
16700;DHT22;8466;52.286;21.124;2022-09-01T06:39:41;13.60;99.90
16700;DHT22;8466;52.286;21.124;2022-09-01T06:42:10;13.70;99.90
16700;DHT22;8466;52.286;21.124;2022-09-01T06:44:40;13.80;99.90
16700;DHT22;8466;52.286;21.124;2022-09-01T06:47:10;13.90;99.90
16700;DHT22;8466;52.286;21.124;2022-09-01T06:49:39;14.10;99.90
16700;DHT22;8466;52.286;21.124;2022-09-01T06:52:08;14.20;99.90
16700;DHT22;8466;52.286;21.124;2022-09-01T06:54:37;14.30;99.90
16700;DHT22;8466;52.286;21.124;2022-09-01T06:57:10;14.40;99.90
16700;DHT22;8466;52.286;21.124;2022-09-01T06:59:59;14.50;99.90
16700;DHT22;8466;52.286;21.124;2022-09-01T07:02:35;14.60;99.90
16700;DHT22;8466;52.286;21.124;2022-09-01T07:05:08;14.60;99.90
16700;DHT22;8466;52.286;21.124;2022-09-01T07:07:57;14.70;99.90
16700;DHT22;8466;52.286;21.124;2022-09-01T07:10:38;14.80;99.90
16700;DHT22;8466;52.286;21.124;2022-09-01T07:13:27;14.90;99.90
16700;DHT22;8466;52.286;21.124;2022-09-01T07:16:00;15.00;99.90
16700;DHT22;8466;52.286;21.124;2022-09-01T07:18:56;15.10;99.90
16700;DHT22;8466;52.286;21.124;2022-09-01T07:21:29;15.20;99.90
16700;DHT22;8466;52.286;21.124;2022-09-01T07:24:08;15.20;99.90
16700;DHT22;8466;52.286;21.124;2022-09-01T07:26:40;15.40;99.90
16700;DHT22;8466;52.286;21.124;2022-09-01T07:29:29;15.50;99.90
16700;DHT22;8466;52.286;21.124;2022-09-01T07:31:58;15.60;99.90
16700;DHT22;8466;52.286;21.124;2022-09-01T07:34:49;15.60;99.90
16700;DHT22;8466;52.286;21.124;2022-09-01T07:37:20;15.80;99.90
16700;DHT22;8466;52.286;21.124;2022-09-01T07:40:12;15.90;99.90
16700;DHT22;8466;52.286;21.124;2022-09-01T07:43:02;16.00;99.90
16700;DHT22;8466;52.286;21.124;2022-09-01T07:45:35;16.20;99.90
16700;DHT22;8466;52.286;21.124;2022-09-01T07:48:15;16.30;99.90
16700;DHT22;8466;52.286;21.124;2022-09-01T07:51:11;16.30;99.90
16700;DHT22;8466;52.286;21.124;2022-09-01T07:54:00;16.20;99.90
16700;DHT22;8466;52.286;21.124;2022-09-01T07:56:29;16.20;99.90
16700;DHT22;8466;52.286;21.124;2022-09-01T07:59:03;16.30;99.90
16700;DHT22;8466;52.286;21.124;2022-09-01T08:01:32;16.50;99.90
16700;DHT22;8466;52.286;21.124;2022-09-01T08:04:01;16.80;99.90
16700;DHT22;8466;52.286;21.124;2022-09-01T08:06:34;17.00;99.90
16700;DHT22;8466;52.286;21.124;2022-09-01T08:09:05;17.20;99.90
16700;DHT22;8466;52.286;21.124;2022-09-01T08:11:38;17.20;99.90
16700;DHT22;8466;52.286;21.124;2022-09-01T08:14:27;17.20;99.90
16700;DHT22;8466;52.286;21.124;2022-09-01T08:17:02;17.30;99.90
16700;DHT22;8466;52.286;21.124;2022-09-01T08:19:50;17.30;99.90
16700;DHT22;8466;52.286;21.124;2022-09-01T08:22:21;17.60;99.90
16700;DHT22;8466;52.286;21.124;2022-09-01T08:24:52;17.90;99.90
16700;DHT22;8466;52.286;21.124;2022-09-01T08:27:21;18.30;99.90
16700;DHT22;8466;52.286;21.124;2022-09-01T08:29:49;18.50;99.90
16700;DHT22;8466;52.286;21.124;2022-09-01T08:32:18;18.40;99.90
16700;DHT22;8466;52.286;21.124;2022-09-01T08:34:48;18.20;99.90
16700;DHT22;8466;52.286;21.124;2022-09-01T08:37:16;18.10;99.90
16700;DHT22;8466;52.286;21.124;2022-09-01T08:39:47;18.10;99.90
16700;DHT22;8466;52.286;21.124;2022-09-01T08:42:23;18.30;99.90
16700;DHT22;8466;52.286;21.124;2022-09-01T08:45:04;18.40;99.90
16700;DHT22;8466;52.286;21.124;2022-09-01T08:47:35;18.60;99.90
16700;DHT22;8466;52.286;21.124;2022-09-01T08:50:24;18.60;99.90
16700;DHT22;8466;52.286;21.124;2022-09-01T08:52:59;18.50;99.90
16700;DHT22;8466;52.286;21.124;2022-09-01T08:55:42;18.20;99.90
16700;DHT22;8466;52.286;21.124;2022-09-01T08:58:15;18.00;99.90
16700;DHT22;8466;52.286;21.124;2022-09-01T09:00:49;18.10;99.90
16700;DHT22;8466;52.286;21.124;2022-09-01T09:03:31;18.30;99.90
16700;DHT22;8466;52.286;21.124;2022-09-01T09:06:14;18.70;99.90
16700;DHT22;8466;52.286;21.124;2022-09-01T09:08:54;18.80;99.90
16700;DHT22;8466;52.286;21.124;2022-09-01T09:11:56;18.70;99.90
16700;DHT22;8466;52.286;21.124;2022-09-01T09:14:48;18.60;99.90
16700;DHT22;8466;52.286;21.124;2022-09-01T09:17:23;18.40;99.90
16700;DHT22;8466;52.286;21.124;2022-09-01T09:19:55;18.50;99.90
16700;DHT22;8466;52.286;21.124;2022-09-01T09:22:24;18.60;99.90
16700;DHT22;8466;52.286;21.124;2022-09-01T09:24:58;18.70;99.60
16700;DHT22;8466;52.286;21.124;2022-09-01T09:27:32;18.70;99.80
16700;DHT22;8466;52.286;21.124;2022-09-01T09:30:06;18.90;99.90
16700;DHT22;8466;52.286;21.124;2022-09-01T09:32:49;19.00;98.90
16700;DHT22;8466;52.286;21.124;2022-09-01T09:35:40;19.20;98.00
16700;DHT22;8466;52.286;21.124;2022-09-01T09:38:19;19.10;98.70
16700;DHT22;8466;52.286;21.124;2022-09-01T09:40:59;19.00;99.00
16700;DHT22;8466;52.286;21.124;2022-09-01T09:43:53;18.90;99.20
16700;DHT22;8466;52.286;21.124;2022-09-01T09:46:27;18.80;99.90
16700;DHT22;8466;52.286;21.124;2022-09-01T09:49:10;18.70;99.70
16700;DHT22;8466;52.286;21.124;2022-09-01T09:51:42;18.80;99.50
16700;DHT22;8466;52.286;21.124;2022-09-01T09:54:14;18.80;99.30
16700;DHT22;8466;52.286;21.124;2022-09-01T09:56:43;18.80;99.00
16700;DHT22;8466;52.286;21.124;2022-09-01T09:59:27;19.10;98.10
16700;DHT22;8466;52.286;21.124;2022-09-01T10:02:24;19.30;96.50
16700;DHT22;8466;52.286;21.124;2022-09-01T10:04:54;19.40;97.00
16700;DHT22;8466;52.286;21.124;2022-09-01T10:07:29;19.50;97.30
16700;DHT22;8466;52.286;21.124;2022-09-01T10:10:01;19.50;97.60
16700;DHT22;8466;52.286;21.124;2022-09-01T10:12:30;19.50;97.90
16700;DHT22;8466;52.286;21.124;2022-09-01T10:15:03;19.40;97.80
16700;DHT22;8466;52.286;21.124;2022-09-01T10:17:41;19.40;97.10
16700;DHT22;8466;52.286;21.124;2022-09-01T10:20:13;19.40;97.00
16700;DHT22;8466;52.286;21.124;2022-09-01T10:22:44;19.50;97.10
16700;DHT22;8466;52.286;21.124;2022-09-01T10:25:19;19.50;97.30
16700;DHT22;8466;52.286;21.124;2022-09-01T10:27:51;19.60;97.00
16700;DHT22;8466;52.286;21.124;2022-09-01T10:30:22;19.60;95.70
16700;DHT22;8466;52.286;21.124;2022-09-01T10:32:54;19.50;95.90
16700;DHT22;8466;52.286;21.124;2022-09-01T10:35:35;19.30;96.20
16700;DHT22;8466;52.286;21.124;2022-09-01T10:38:08;19.10;96.40
16700;DHT22;8466;52.286;21.124;2022-09-01T10:40:40;19.00;96.70
16700;DHT22;8466;52.286;21.124;2022-09-01T10:43:24;18.90;96.20
16700;DHT22;8466;52.286;21.124;2022-09-01T10:45:56;18.90;95.80
16700;DHT22;8466;52.286;21.124;2022-09-01T10:48:32;18.90;96.20
16700;DHT22;8466;52.286;21.124;2022-09-01T10:51:41;19.00;95.10
16700;DHT22;8466;52.286;21.124;2022-09-01T10:57:39;19.40;95.00
16700;DHT22;8466;52.286;21.124;2022-09-01T11:00:45;19.70;95.30
16700;DHT22;8466;52.286;21.124;2022-09-01T11:06:44;20.20;93.50
16700;DHT22;8466;52.286;21.124;2022-09-01T11:09:41;20.40;92.50
16700;DHT22;8466;52.286;21.124;2022-09-01T11:12:37;20.50;92.10
16700;DHT22;8466;52.286;21.124;2022-09-01T11:15:33;20.70;91.70
16700;DHT22;8466;52.286;21.124;2022-09-01T11:18:08;20.80;91.50
16700;DHT22;8466;52.286;21.124;2022-09-01T11:20:44;20.80;91.70
16700;DHT22;8466;52.286;21.124;2022-09-01T11:23:22;21.00;91.50
16700;DHT22;8466;52.286;21.124;2022-09-01T11:25:55;21.10;90.90
16700;DHT22;8466;52.286;21.124;2022-09-01T11:28:43;21.00;87.80
16700;DHT22;8466;52.286;21.124;2022-09-01T11:31:37;20.90;88.10
16700;DHT22;8466;52.286;21.124;2022-09-01T11:34:16;20.50;89.20
16700;DHT22;8466;52.286;21.124;2022-09-01T11:36:52;20.30;90.60
16700;DHT22;8466;52.286;21.124;2022-09-01T11:39:39;20.20;90.10
16700;DHT22;8466;52.286;21.124;2022-09-01T11:42:11;20.00;89.50
16700;DHT22;8466;52.286;21.124;2022-09-01T11:44:50;19.90;87.30
16700;DHT22;8466;52.286;21.124;2022-09-01T11:47:23;19.90;87.30
16700;DHT22;8466;52.286;21.124;2022-09-01T11:49:55;20.10;86.60
16700;DHT22;8466;52.286;21.124;2022-09-01T11:52:30;20.50;84.70
16700;DHT22;8466;52.286;21.124;2022-09-01T11:55:00;21.00;84.90
16700;DHT22;8466;52.286;21.124;2022-09-01T11:57:31;21.30;83.00
16700;DHT22;8466;52.286;21.124;2022-09-01T12:00:03;21.50;82.50
16700;DHT22;8466;52.286;21.124;2022-09-01T12:02:34;21.20;82.80
16700;DHT22;8466;52.286;21.124;2022-09-01T12:05:24;21.10;84.70
16700;DHT22;8466;52.286;21.124;2022-09-01T12:07:55;21.00;84.70
16700;DHT22;8466;52.286;21.124;2022-09-01T12:10:29;20.80;84.50
16700;DHT22;8466;52.286;21.124;2022-09-01T12:15:33;20.20;84.90
16700;DHT22;8466;52.286;21.124;2022-09-01T12:18:24;19.90;86.70
16700;DHT22;8466;52.286;21.124;2022-09-01T12:20:54;19.80;86.00
16700;DHT22;8466;52.286;21.124;2022-09-01T12:23:27;19.60;86.20
16700;DHT22;8466;52.286;21.124;2022-09-01T12:25:57;19.70;86.60
16700;DHT22;8466;52.286;21.124;2022-09-01T12:28:28;19.80;84.10
16700;DHT22;8466;52.286;21.124;2022-09-01T12:31:01;19.90;83.00
16700;DHT22;8466;52.286;21.124;2022-09-01T12:33:34;19.90;83.10
16700;DHT22;8466;52.286;21.124;2022-09-01T12:36:22;19.90;82.80
16700;DHT22;8466;52.286;21.124;2022-09-01T12:38:53;19.80;84.30
16700;DHT22;8466;52.286;21.124;2022-09-01T12:41:24;19.80;85.60
16700;DHT22;8466;52.286;21.124;2022-09-01T12:43:55;19.80;85.40
16700;DHT22;8466;52.286;21.124;2022-09-01T12:46:40;19.90;84.30
16700;DHT22;8466;52.286;21.124;2022-09-01T12:49:16;19.80;83.70
16700;DHT22;8466;52.286;21.124;2022-09-01T12:51:46;19.80;83.60
16700;DHT22;8466;52.286;21.124;2022-09-01T12:54:23;20.00;82.80
16700;DHT22;8466;52.286;21.124;2022-09-01T12:56:52;20.10;81.60
16700;DHT22;8466;52.286;21.124;2022-09-01T12:59:23;20.20;82.40
16700;DHT22;8466;52.286;21.124;2022-09-01T13:02:28;20.30;81.50
16700;DHT22;8466;52.286;21.124;2022-09-01T13:05:23;20.50;81.30
16700;DHT22;8466;52.286;21.124;2022-09-01T13:07:59;20.60;81.90
16700;DHT22;8466;52.286;21.124;2022-09-01T13:10:34;20.80;82.80
16700;DHT22;8466;52.286;21.124;2022-09-01T13:13:04;21.00;80.70
16700;DHT22;8466;52.286;21.124;2022-09-01T13:15:35;21.20;79.40
16700;DHT22;8466;52.286;21.124;2022-09-01T13:18:04;21.30;77.00
16700;DHT22;8466;52.286;21.124;2022-09-01T13:20:33;21.20;77.10
16700;DHT22;8466;52.286;21.124;2022-09-01T13:23:02;21.30;78.40
16700;DHT22;8466;52.286;21.124;2022-09-01T13:25:32;21.30;78.90
16700;DHT22;8466;52.286;21.124;2022-09-01T13:28:02;21.30;79.80
16700;DHT22;8466;52.286;21.124;2022-09-01T13:30:32;21.40;79.70
16700;DHT22;8466;52.286;21.124;2022-09-01T13:33:01;21.30;79.80
16700;DHT22;8466;52.286;21.124;2022-09-01T13:35:48;21.10;80.90
16700;DHT22;8466;52.286;21.124;2022-09-01T13:38:18;20.80;81.80
16700;DHT22;8466;52.286;21.124;2022-09-01T13:40:49;20.50;83.20
16700;DHT22;8466;52.286;21.124;2022-09-01T13:43:21;20.20;83.90
16700;DHT22;8466;52.286;21.124;2022-09-01T13:45:50;19.80;84.70
16700;DHT22;8466;52.286;21.124;2022-09-01T13:48:19;19.50;85.70
16700;DHT22;8466;52.286;21.124;2022-09-01T13:50:49;19.30;86.50
16700;DHT22;8466;52.286;21.124;2022-09-01T13:53:38;19.10;88.00
16700;DHT22;8466;52.286;21.124;2022-09-01T13:56:08;19.00;87.50
16700;DHT22;8466;52.286;21.124;2022-09-01T13:58:37;19.10;85.60
16700;DHT22;8466;52.286;21.124;2022-09-01T14:01:07;19.10;85.80
16700;DHT22;8466;52.286;21.124;2022-09-01T14:03:36;19.20;85.40
16700;DHT22;8466;52.286;21.124;2022-09-01T14:06:05;19.30;84.10
16700;DHT22;8466;52.286;21.124;2022-09-01T14:08:45;19.50;84.60
16700;DHT22;8466;52.286;21.124;2022-09-01T14:11:17;19.60;85.40
16700;DHT22;8466;52.286;21.124;2022-09-01T14:13:46;19.80;84.30
16700;DHT22;8466;52.286;21.124;2022-09-01T14:16:15;19.90;84.10
16700;DHT22;8466;52.286;21.124;2022-09-01T14:18:45;20.10;84.10
16700;DHT22;8466;52.286;21.124;2022-09-01T14:21:15;20.10;84.00
16700;DHT22;8466;52.286;21.124;2022-09-01T14:23:44;20.10;82.70
16700;DHT22;8466;52.286;21.124;2022-09-01T14:26:16;20.00;83.50
16700;DHT22;8466;52.286;21.124;2022-09-01T14:28:45;20.00;84.20
16700;DHT22;8466;52.286;21.124;2022-09-01T14:31:16;19.90;84.50
16700;DHT22;8466;52.286;21.124;2022-09-01T14:33:45;19.90;84.90
16700;DHT22;8466;52.286;21.124;2022-09-01T14:36:19;20.00;85.20
16700;DHT22;8466;52.286;21.124;2022-09-01T14:38:49;20.00;84.90
16700;DHT22;8466;52.286;21.124;2022-09-01T14:41:21;20.00;85.00
16700;DHT22;8466;52.286;21.124;2022-09-01T14:43:54;20.00;85.10
16700;DHT22;8466;52.286;21.124;2022-09-01T14:46:29;19.90;84.20
16700;DHT22;8466;52.286;21.124;2022-09-01T14:49:02;19.90;84.90
16700;DHT22;8466;52.286;21.124;2022-09-01T14:51:31;19.90;85.00
16700;DHT22;8466;52.286;21.124;2022-09-01T14:54:21;19.90;85.20
16700;DHT22;8466;52.286;21.124;2022-09-01T14:56:51;19.90;83.60
16700;DHT22;8466;52.286;21.124;2022-09-01T14:59:40;19.90;84.00
16700;DHT22;8466;52.286;21.124;2022-09-01T15:02:09;20.00;83.20
16700;DHT22;8466;52.286;21.124;2022-09-01T15:04:37;20.10;82.00
16700;DHT22;8466;52.286;21.124;2022-09-01T15:07:08;20.30;82.50
16700;DHT22;8466;52.286;21.124;2022-09-01T15:09:39;20.50;81.80
16700;DHT22;8466;52.286;21.124;2022-09-01T15:12:10;20.80;81.50
16700;DHT22;8466;52.286;21.124;2022-09-01T15:14:38;21.00;81.10
16700;DHT22;8466;52.286;21.124;2022-09-01T15:17:07;21.10;80.20
16700;DHT22;8466;52.286;21.124;2022-09-01T15:19:36;21.20;80.00
16700;DHT22;8466;52.286;21.124;2022-09-01T15:22:07;21.10;80.00
16700;DHT22;8466;52.286;21.124;2022-09-01T15:24:38;21.00;80.70
16700;DHT22;8466;52.286;21.124;2022-09-01T15:27:09;20.70;80.90
16700;DHT22;8466;52.286;21.124;2022-09-01T15:29:38;20.50;82.00
16700;DHT22;8466;52.286;21.124;2022-09-01T15:32:14;20.30;81.90
16700;DHT22;8466;52.286;21.124;2022-09-01T15:34:54;20.10;83.10
16700;DHT22;8466;52.286;21.124;2022-09-01T15:37:22;19.80;83.50
16700;DHT22;8466;52.286;21.124;2022-09-01T15:39:52;19.50;84.10
16700;DHT22;8466;52.286;21.124;2022-09-01T15:42:22;19.30;84.70
16700;DHT22;8466;52.286;21.124;2022-09-01T15:44:50;19.10;85.90
16700;DHT22;8466;52.286;21.124;2022-09-01T15:47:19;19.00;86.80
16700;DHT22;8466;52.286;21.124;2022-09-01T15:49:48;18.90;86.90
16700;DHT22;8466;52.286;21.124;2022-09-01T15:52:17;18.80;87.00
16700;DHT22;8466;52.286;21.124;2022-09-01T15:54:47;18.70;87.10
16700;DHT22;8466;52.286;21.124;2022-09-01T15:57:15;18.70;86.10
16700;DHT22;8466;52.286;21.124;2022-09-01T15:59:46;18.60;86.40
16700;DHT22;8466;52.286;21.124;2022-09-01T16:02:14;18.60;87.10
16700;DHT22;8466;52.286;21.124;2022-09-01T16:04:43;18.50;87.30
16700;DHT22;8466;52.286;21.124;2022-09-01T16:07:12;18.40;87.90
16700;DHT22;8466;52.286;21.124;2022-09-01T16:09:41;18.40;87.80
16700;DHT22;8466;52.286;21.124;2022-09-01T16:12:10;18.40;88.00
16700;DHT22;8466;52.286;21.124;2022-09-01T16:14:38;18.40;86.40
16700;DHT22;8466;52.286;21.124;2022-09-01T16:17:15;18.40;86.20
16700;DHT22;8466;52.286;21.124;2022-09-01T16:19:51;18.30;87.20
16700;DHT22;8466;52.286;21.124;2022-09-01T16:22:24;18.10;88.10